01:07 Rennrad Moetz - Pettnau - Zirl - Kematen - Voels - Radweg - Innsbruck ARZ
Ort Moetz Datum 10.08.2017 06:22:00
Kategorie Rennrad
Distanz 39,12 Kilometer Steigung 84,0 Meter Gefälle -137,0 Meter
Gesamt Zeit 01:07:22 Aktiv 01:07:22 Pause 00:00:00
Durchs. Tempo 34,8 km/h Tempo max. 49,9 km/h Tempo min. 21,5 km/h
Kalorien 0 Durchs. HF 136 BPM HF max. 157 BPM
Wetter 15 °C Clouds Min/Max: 14,6 °C/15,6 °C; Druck: 1017,2 mbar; Rel. Feuchte: 94,0%; Taupunkt: 14,9 °C; Windgeschwindigkeit: 0,6 km/h; Niederschlag: 0,0mm
Ausrüstung Bontrager - RL Road
Scott - Addict 20
Notiz Moetz - Pettnau - Zirl - Kematen - Voels - Radweg - Innsbruck ARZ ... trocken, eher frisch, leichter Wind, tw. drehend, mehr Rueckenwind - eher flott ... garmin connect
Splits
Distanz (km) Gesamt Zeit Split Zeit Split Tempo Split Tempo Höhenprofil (m)
1,00 00:02:01 00:02:01 00:02:02 29,5 -9,78
2,00 00:03:49 00:01:48 00:01:48 33,3 0,14
3,00 00:05:29 00:01:39 00:01:39 36,2 -0,68
4,00 00:07:14 00:01:45 00:01:45 34,2 -3,86
5,00 00:08:57 00:01:43 00:01:43 34,9 0,85
6,00 00:10:41 00:01:43 00:01:43 34,8 -0,29
7,00 00:12:21 00:01:40 00:01:41 35,8 -1,19
8,00 00:13:54 00:01:32 00:01:33 38,8 -7,67
9,00 00:15:26 00:01:31 00:01:31 39,4 -2,69
10,00 00:17:04 00:01:38 00:01:38 36,7 0,43
11,00 00:18:38 00:01:33 00:01:34 38,3 0,44
12,00 00:20:13 00:01:35 00:01:36 37,6 -6,17
13,00 00:21:54 00:01:40 00:01:41 35,8 -0,02
14,00 00:23:36 00:01:42 00:01:42 35,2 -0,08
15,00 00:25:20 00:01:43 00:01:44 34,6 -4,60
16,00 00:26:58 00:01:37 00:01:38 36,8 3,59
17,00 00:28:39 00:01:40 00:01:41 35,7 -8,04
18,00 00:30:20 00:01:40 00:01:41 35,8 0,00
19,00 00:32:01 00:01:40 00:01:41 35,7 -0,48
20,00 00:33:38 00:01:37 00:01:38 36,8 -0,85
21,00 00:35:19 00:01:40 00:01:41 35,8 -3,21
22,00 00:36:57 00:01:38 00:01:38 36,6 -3,93
23,00 00:38:51 00:01:53 00:01:54 31,7 11,72
24,00 00:40:32 00:01:40 00:01:41 35,7 -0,96
25,00 00:42:58 00:02:25 00:02:26 24,7 16,80
26,00 00:44:30 00:01:32 00:01:33 38,8 -10,57
27,00 00:45:51 00:01:20 00:01:21 44,6 -29,81
28,00 00:47:24 00:01:32 00:01:33 38,8 4,17
29,00 00:49:25 00:02:01 00:02:01 29,7 0,48
30,00 00:51:11 00:01:46 00:01:46 33,9 -2,66
31,00 00:52:52 00:01:40 00:01:40 35,9 -3,28
32,00 00:54:32 00:01:40 00:01:40 35,9 -1,09
33,00 00:56:19 00:01:47 00:01:48 33,5 2,09
34,00 00:58:24 00:02:04 00:02:05 28,9 -8,10
35,00 01:00:04 00:01:40 00:01:40 35,9 -3,62
36,00 01:01:44 00:01:39 00:01:39 36,2 -1,95
37,00 01:03:24 00:01:40 00:01:40 35,9 -2,06
38,00 01:05:11 00:01:47 00:01:47 33,6 0,96
39,00 01:07:00 00:01:48 00:01:48 33,2 6,35
39,14 01:07:22 00:00:21 00:02:36 23,1 0,00